sensor_id;sensor_type;location;lat;lon;timestamp;temperature;humidity
35894;DHT22;21994;48.204;16.516;2022-12-29T00:02:08;-1.80;99.90
35894;DHT22;21994;48.204;16.516;2022-12-29T00:04:34;-1.80;99.90
35894;DHT22;21994;48.204;16.516;2022-12-29T00:06:59;-1.90;99.90
35894;DHT22;21994;48.204;16.516;2022-12-29T00:09:25;-1.90;99.90
35894;DHT22;21994;48.204;16.516;2022-12-29T00:11:52;-2.00;99.90
35894;DHT22;21994;48.204;16.516;2022-12-29T00:14:17;-2.00;99.90
35894;DHT22;21994;48.204;16.516;2022-12-29T00:17:02;-2.10;99.90
35894;DHT22;21994;48.204;16.516;2022-12-29T00:19:27;-2.10;99.90
35894;DHT22;21994;48.204;16.516;2022-12-29T00:22:12;-2.20;99.90
35894;DHT22;21994;48.204;16.516;2022-12-29T00:24:57;-2.20;99.90
35894;DHT22;21994;48.204;16.516;2022-12-29T00:27:41;-2.30;99.90
35894;DHT22;21994;48.204;16.516;2022-12-29T00:30:25;-2.30;99.90
35894;DHT22;21994;48.204;16.516;2022-12-29T00:33:18;-2.30;99.90
35894;DHT22;21994;48.204;16.516;2022-12-29T00:36:05;-2.40;99.90
35894;DHT22;21994;48.204;16.516;2022-12-29T00:38:34;-2.30;99.90
35894;DHT22;21994;48.204;16.516;2022-12-29T00:41:22;-2.30;99.90
35894;DHT22;21994;48.204;16.516;2022-12-29T00:44:20;-2.40;99.90
35894;DHT22;21994;48.204;16.516;2022-12-29T00:46:46;-2.40;99.90
35894;DHT22;21994;48.204;16.516;2022-12-29T00:49:12;-2.40;99.90
35894;DHT22;21994;48.204;16.516;2022-12-29T00:52:06;-2.50;99.90
35894;DHT22;21994;48.204;16.516;2022-12-29T00:54:34;-2.50;99.90
35894;DHT22;21994;48.204;16.516;2022-12-29T00:57:01;-2.50;99.90
35894;DHT22;21994;48.204;16.516;2022-12-29T00:59:27;-2.60;99.90
35894;DHT22;21994;48.204;16.516;2022-12-29T01:01:53;-2.60;99.90
35894;DHT22;21994;48.204;16.516;2022-12-29T01:04:20;-2.70;99.90
35894;DHT22;21994;48.204;16.516;2022-12-29T01:06:46;-2.70;99.90
35894;DHT22;21994;48.204;16.516;2022-12-29T01:09:12;-2.70;99.90
35894;DHT22;21994;48.204;16.516;2022-12-29T01:11:57;-2.70;99.90
35894;DHT22;21994;48.204;16.516;2022-12-29T01:14:23;-2.80;99.90
35894;DHT22;21994;48.204;16.516;2022-12-29T01:16:49;-2.80;99.90
35894;DHT22;21994;48.204;16.516;2022-12-29T01:19:15;-2.90;99.90
35894;DHT22;21994;48.204;16.516;2022-12-29T01:21:41;-2.90;99.90
35894;DHT22;21994;48.204;16.516;2022-12-29T01:24:07;-2.90;99.90
35894;DHT22;21994;48.204;16.516;2022-12-29T01:26:33;-2.90;99.90
35894;DHT22;21994;48.204;16.516;2022-12-29T01:28:58;-2.90;99.90
35894;DHT22;21994;48.204;16.516;2022-12-29T01:31:24;-3.00;99.90
35894;DHT22;21994;48.204;16.516;2022-12-29T01:33:50;-3.00;99.90
35894;DHT22;21994;48.204;16.516;2022-12-29T01:36:16;-3.00;99.90
35894;DHT22;21994;48.204;16.516;2022-12-29T01:38:43;-3.00;99.90
35894;DHT22;21994;48.204;16.516;2022-12-29T01:41:09;-3.10;99.90
35894;DHT22;21994;48.204;16.516;2022-12-29T01:46:31;-3.20;99.90
35894;DHT22;21994;48.204;16.516;2022-12-29T01:51:44;-3.20;99.90
35894;DHT22;21994;48.204;16.516;2022-12-29T01:54:13;-3.20;99.90
35894;DHT22;21994;48.204;16.516;2022-12-29T01:56:52;-3.20;99.90
35894;DHT22;21994;48.204;16.516;2022-12-29T01:59:20;-3.20;99.90
35894;DHT22;21994;48.204;16.516;2022-12-29T02:01:50;-3.10;99.90
35894;DHT22;21994;48.204;16.516;2022-12-29T02:04:16;-3.10;99.90
35894;DHT22;21994;48.204;16.516;2022-12-29T02:06:45;-3.20;99.90
35894;DHT22;21994;48.204;16.516;2022-12-29T02:09:13;-3.20;99.90
35894;DHT22;21994;48.204;16.516;2022-12-29T02:11:39;-3.20;99.90
35894;DHT22;21994;48.204;16.516;2022-12-29T02:14:09;-3.20;99.90
35894;DHT22;21994;48.204;16.516;2022-12-29T02:16:39;-3.20;99.90
35894;DHT22;21994;48.204;16.516;2022-12-29T02:24:51;-3.10;99.90
35894;DHT22;21994;48.204;16.516;2022-12-29T02:27:48;-3.10;99.90
35894;DHT22;21994;48.204;16.516;2022-12-29T02:41:31;-3.30;99.90
35894;DHT22;21994;48.204;16.516;2022-12-29T02:44:08;-3.30;99.90
35894;DHT22;21994;48.204;16.516;2022-12-29T02:46:53;-3.30;99.90
35894;DHT22;21994;48.204;16.516;2022-12-29T02:54:39;-3.30;99.90
35894;DHT22;21994;48.204;16.516;2022-12-29T02:57:12;-3.30;99.90
35894;DHT22;21994;48.204;16.516;2022-12-29T02:59:45;-3.40;99.90
35894;DHT22;21994;48.204;16.516;2022-12-29T03:02:25;-3.40;99.90
35894;DHT22;21994;48.204;16.516;2022-12-29T03:10:12;-3.40;99.90
35894;DHT22;21994;48.204;16.516;2022-12-29T03:12:53;-3.40;99.90
35894;DHT22;21994;48.204;16.516;2022-12-29T03:15:45;-3.40;99.90
35894;DHT22;21994;48.204;16.516;2022-12-29T03:18:27;-3.40;99.90
35894;DHT22;21994;48.204;16.516;2022-12-29T03:21:11;-3.30;99.90
35894;DHT22;21994;48.204;16.516;2022-12-29T03:23:40;-3.30;99.90
35894;DHT22;21994;48.204;16.516;2022-12-29T03:26:08;-3.30;99.90
35894;DHT22;21994;48.204;16.516;2022-12-29T03:28:36;-3.30;99.90
35894;DHT22;21994;48.204;16.516;2022-12-29T03:31:05;-3.30;99.90
35894;DHT22;21994;48.204;16.516;2022-12-29T03:33:32;-3.20;99.90
35894;DHT22;21994;48.204;16.516;2022-12-29T03:36:00;-3.20;99.90
35894;DHT22;21994;48.204;16.516;2022-12-29T03:38:35;-3.30;99.90
35894;DHT22;21994;48.204;16.516;2022-12-29T03:41:13;-3.30;99.90
35894;DHT22;21994;48.204;16.516;2022-12-29T03:43:40;-3.30;99.90
35894;DHT22;21994;48.204;16.516;2022-12-29T03:46:06;-3.30;99.90
35894;DHT22;21994;48.204;16.516;2022-12-29T03:48:32;-3.30;99.90
35894;DHT22;21994;48.204;16.516;2022-12-29T03:50:58;-3.30;99.90
35894;DHT22;21994;48.204;16.516;2022-12-29T03:53:24;-3.20;99.90
35894;DHT22;21994;48.204;16.516;2022-12-29T03:55:50;-3.20;99.90
35894;DHT22;21994;48.204;16.516;2022-12-29T03:58:16;-3.20;99.90
35894;DHT22;21994;48.204;16.516;2022-12-29T04:00:41;-3.20;99.90
35894;DHT22;21994;48.204;16.516;2022-12-29T04:03:07;-3.20;99.90
35894;DHT22;21994;48.204;16.516;2022-12-29T04:05:33;-3.20;99.90
35894;DHT22;21994;48.204;16.516;2022-12-29T04:07:58;-3.20;99.90
35894;DHT22;21994;48.204;16.516;2022-12-29T04:10:25;-3.10;99.90
35894;DHT22;21994;48.204;16.516;2022-12-29T04:12:50;-3.10;99.90
35894;DHT22;21994;48.204;16.516;2022-12-29T04:15:16;-3.10;99.90
35894;DHT22;21994;48.204;16.516;2022-12-29T04:17:42;-3.10;99.90
35894;DHT22;21994;48.204;16.516;2022-12-29T04:20:08;-3.10;99.90
35894;DHT22;21994;48.204;16.516;2022-12-29T04:23:02;-3.10;99.90
35894;DHT22;21994;48.204;16.516;2022-12-29T04:25:29;-3.10;99.90
35894;DHT22;21994;48.204;16.516;2022-12-29T04:27:56;-3.10;99.90
35894;DHT22;21994;48.204;16.516;2022-12-29T04:30:21;-3.10;99.90
35894;DHT22;21994;48.204;16.516;2022-12-29T04:32:47;-3.10;99.90
35894;DHT22;21994;48.204;16.516;2022-12-29T04:35:13;-3.10;99.90
35894;DHT22;21994;48.204;16.516;2022-12-29T04:37:39;-3.10;99.90
35894;DHT22;21994;48.204;16.516;2022-12-29T04:40:05;-3.10;99.90
35894;DHT22;21994;48.204;16.516;2022-12-29T04:42:31;-3.10;99.90
35894;DHT22;21994;48.204;16.516;2022-12-29T04:44:57;-3.10;99.90
35894;DHT22;21994;48.204;16.516;2022-12-29T04:47:23;-3.10;99.90
35894;DHT22;21994;48.204;16.516;2022-12-29T04:49:48;-3.10;99.90
35894;DHT22;21994;48.204;16.516;2022-12-29T04:52:14;-3.10;99.90
35894;DHT22;21994;48.204;16.516;2022-12-29T04:54:40;-3.00;99.90
35894;DHT22;21994;48.204;16.516;2022-12-29T04:57:05;-3.00;99.90
35894;DHT22;21994;48.204;16.516;2022-12-29T04:59:31;-2.90;99.90
35894;DHT22;21994;48.204;16.516;2022-12-29T05:01:57;-2.80;99.90
35894;DHT22;21994;48.204;16.516;2022-12-29T05:04:22;-2.70;99.90
35894;DHT22;21994;48.204;16.516;2022-12-29T05:06:48;-2.60;99.90
35894;DHT22;21994;48.204;16.516;2022-12-29T05:09:14;-2.60;99.90
35894;DHT22;21994;48.204;16.516;2022-12-29T05:11:40;-2.50;99.90
35894;DHT22;21994;48.204;16.516;2022-12-29T05:14:05;-2.40;99.90
35894;DHT22;21994;48.204;16.516;2022-12-29T05:16:31;-2.30;99.90
35894;DHT22;21994;48.204;16.516;2022-12-29T05:18:57;-2.20;99.90
35894;DHT22;21994;48.204;16.516;2022-12-29T05:21:22;-2.20;99.90
35894;DHT22;21994;48.204;16.516;2022-12-29T05:23:48;-2.10;99.90
35894;DHT22;21994;48.204;16.516;2022-12-29T05:26:14;-2.10;99.90
35894;DHT22;21994;48.204;16.516;2022-12-29T05:28:40;-2.00;99.90
35894;DHT22;21994;48.204;16.516;2022-12-29T05:31:05;-2.00;99.90
35894;DHT22;21994;48.204;16.516;2022-12-29T05:33:31;-1.90;99.90
35894;DHT22;21994;48.204;16.516;2022-12-29T05:35:57;-1.90;99.90
35894;DHT22;21994;48.204;16.516;2022-12-29T05:38:23;-1.90;99.90
35894;DHT22;21994;48.204;16.516;2022-12-29T05:40:48;-1.80;99.90
35894;DHT22;21994;48.204;16.516;2022-12-29T05:43:14;-1.80;99.90
35894;DHT22;21994;48.204;16.516;2022-12-29T05:45:40;-1.80;99.90
35894;DHT22;21994;48.204;16.516;2022-12-29T05:48:05;-1.80;99.90
35894;DHT22;21994;48.204;16.516;2022-12-29T05:50:31;-1.80;99.90
35894;DHT22;21994;48.204;16.516;2022-12-29T05:52:57;-1.90;99.90
35894;DHT22;21994;48.204;16.516;2022-12-29T05:55:22;-1.90;99.90
35894;DHT22;21994;48.204;16.516;2022-12-29T05:57:48;-1.90;99.90
35894;DHT22;21994;48.204;16.516;2022-12-29T06:00:14;-2.00;99.90
35894;DHT22;21994;48.204;16.516;2022-12-29T06:02:41;-2.00;99.90
35894;DHT22;21994;48.204;16.516;2022-12-29T06:05:07;-1.90;99.90
35894;DHT22;21994;48.204;16.516;2022-12-29T06:07:33;-1.90;99.90
35894;DHT22;21994;48.204;16.516;2022-12-29T06:09:59;-1.90;99.90
35894;DHT22;21994;48.204;16.516;2022-12-29T06:12:24;-1.80;99.90
35894;DHT22;21994;48.204;16.516;2022-12-29T06:14:50;-1.90;99.90
35894;DHT22;21994;48.204;16.516;2022-12-29T06:17:16;-1.80;99.90
35894;DHT22;21994;48.204;16.516;2022-12-29T06:19:41;-1.80;99.90
35894;DHT22;21994;48.204;16.516;2022-12-29T06:22:07;-1.70;99.90
35894;DHT22;21994;48.204;16.516;2022-12-29T06:24:33;-1.70;99.90
35894;DHT22;21994;48.204;16.516;2022-12-29T06:26:58;-1.60;99.90
35894;DHT22;21994;48.204;16.516;2022-12-29T06:29:24;-1.50;99.90
35894;DHT22;21994;48.204;16.516;2022-12-29T06:31:50;-1.40;99.90
35894;DHT22;21994;48.204;16.516;2022-12-29T06:34:16;-1.40;99.90
35894;DHT22;21994;48.204;16.516;2022-12-29T06:36:42;-1.30;99.90
35894;DHT22;21994;48.204;16.516;2022-12-29T06:39:07;-1.20;99.90
35894;DHT22;21994;48.204;16.516;2022-12-29T06:41:33;-1.10;99.90
35894;DHT22;21994;48.204;16.516;2022-12-29T06:43:59;-0.90;99.90
35894;DHT22;21994;48.204;16.516;2022-12-29T06:46:24;-0.80;99.90
35894;DHT22;21994;48.204;16.516;2022-12-29T06:48:50;-0.70;99.90
35894;DHT22;21994;48.204;16.516;2022-12-29T06:51:16;-0.60;99.90
35894;DHT22;21994;48.204;16.516;2022-12-29T06:53:41;-0.60;99.90
35894;DHT22;21994;48.204;16.516;2022-12-29T06:56:07;-0.50;99.90
35894;DHT22;21994;48.204;16.516;2022-12-29T06:58:33;-0.50;99.90
35894;DHT22;21994;48.204;16.516;2022-12-29T07:00:59;-0.30;99.90
35894;DHT22;21994;48.204;16.516;2022-12-29T07:03:25;-0.20;99.90
35894;DHT22;21994;48.204;16.516;2022-12-29T07:05:50;0.10;99.90
35894;DHT22;21994;48.204;16.516;2022-12-29T07:08:16;0.30;99.90
35894;DHT22;21994;48.204;16.516;2022-12-29T07:10:42;0.40;99.90
35894;DHT22;21994;48.204;16.516;2022-12-29T07:13:07;0.60;99.90
35894;DHT22;21994;48.204;16.516;2022-12-29T07:15:34;0.70;99.90
35894;DHT22;21994;48.204;16.516;2022-12-29T07:18:00;0.80;99.90
35894;DHT22;21994;48.204;16.516;2022-12-29T07:20:25;0.80;99.90
35894;DHT22;21994;48.204;16.516;2022-12-29T07:22:51;0.90;99.90
35894;DHT22;21994;48.204;16.516;2022-12-29T07:25:17;0.90;99.90
35894;DHT22;21994;48.204;16.516;2022-12-29T07:27:45;1.00;99.90
35894;DHT22;21994;48.204;16.516;2022-12-29T07:30:11;0.90;99.90
35894;DHT22;21994;48.204;16.516;2022-12-29T07:32:37;1.00;99.90
35894;DHT22;21994;48.204;16.516;2022-12-29T07:35:03;1.00;99.90
35894;DHT22;21994;48.204;16.516;2022-12-29T07:37:29;1.10;99.90
35894;DHT22;21994;48.204;16.516;2022-12-29T07:39:55;1.10;99.90
35894;DHT22;21994;48.204;16.516;2022-12-29T07:42:20;1.30;99.90
35894;DHT22;21994;48.204;16.516;2022-12-29T07:44:46;1.40;99.90
35894;DHT22;21994;48.204;16.516;2022-12-29T07:47:12;1.40;99.90
35894;DHT22;21994;48.204;16.516;2022-12-29T07:49:38;1.50;99.90
35894;DHT22;21994;48.204;16.516;2022-12-29T07:52:03;1.40;99.90
35894;DHT22;21994;48.204;16.516;2022-12-29T07:54:29;1.50;99.90
35894;DHT22;21994;48.204;16.516;2022-12-29T07:56:55;1.60;99.90
35894;DHT22;21994;48.204;16.516;2022-12-29T07:59:20;1.60;99.90
35894;DHT22;21994;48.204;16.516;2022-12-29T08:01:46;1.60;99.90
35894;DHT22;21994;48.204;16.516;2022-12-29T08:04:12;1.60;99.90
35894;DHT22;21994;48.204;16.516;2022-12-29T08:06:38;1.70;99.90
35894;DHT22;21994;48.204;16.516;2022-12-29T08:09:03;1.70;99.90
35894;DHT22;21994;48.204;16.516;2022-12-29T08:11:29;1.80;99.90
35894;DHT22;21994;48.204;16.516;2022-12-29T08:13:55;1.90;99.90
35894;DHT22;21994;48.204;16.516;2022-12-29T08:16:21;1.90;99.90
35894;DHT22;21994;48.204;16.516;2022-12-29T08:18:46;1.90;99.90
35894;DHT22;21994;48.204;16.516;2022-12-29T08:21:12;2.00;99.90
35894;DHT22;21994;48.204;16.516;2022-12-29T08:23:38;2.00;99.90
35894;DHT22;21994;48.204;16.516;2022-12-29T08:26:04;2.10;99.90
35894;DHT22;21994;48.204;16.516;2022-12-29T08:28:31;2.20;99.90
35894;DHT22;21994;48.204;16.516;2022-12-29T08:30:57;2.20;99.90
35894;DHT22;21994;48.204;16.516;2022-12-29T08:33:24;2.20;99.90
35894;DHT22;21994;48.204;16.516;2022-12-29T08:35:50;2.20;99.90
35894;DHT22;21994;48.204;16.516;2022-12-29T08:38:16;2.30;99.90
35894;DHT22;21994;48.204;16.516;2022-12-29T08:40:43;2.30;99.90
35894;DHT22;21994;48.204;16.516;2022-12-29T08:43:09;2.40;99.90
35894;DHT22;21994;48.204;16.516;2022-12-29T08:45:34;2.30;99.90
35894;DHT22;21994;48.204;16.516;2022-12-29T08:48:00;2.30;99.90
35894;DHT22;21994;48.204;16.516;2022-12-29T08:50:26;2.30;99.90
35894;DHT22;21994;48.204;16.516;2022-12-29T08:52:52;2.40;99.90
35894;DHT22;21994;48.204;16.516;2022-12-29T08:55:17;2.40;99.90
35894;DHT22;21994;48.204;16.516;2022-12-29T08:57:43;2.40;99.90
35894;DHT22;21994;48.204;16.516;2022-12-29T09:00:09;2.30;99.90
35894;DHT22;21994;48.204;16.516;2022-12-29T09:02:35;2.30;99.90
35894;DHT22;21994;48.204;16.516;2022-12-29T09:05:01;2.30;99.90
35894;DHT22;21994;48.204;16.516;2022-12-29T09:07:27;2.40;99.90
35894;DHT22;21994;48.204;16.516;2022-12-29T09:09:53;2.40;99.90
35894;DHT22;21994;48.204;16.516;2022-12-29T09:12:18;2.40;99.90
35894;DHT22;21994;48.204;16.516;2022-12-29T09:14:45;2.40;99.90
35894;DHT22;21994;48.204;16.516;2022-12-29T09:17:11;2.50;99.90
35894;DHT22;21994;48.204;16.516;2022-12-29T09:19:56;2.50;99.90
35894;DHT22;21994;48.204;16.516;2022-12-29T09:22:21;2.50;99.90
35894;DHT22;21994;48.204;16.516;2022-12-29T09:24:47;2.50;99.90
35894;DHT22;21994;48.204;16.516;2022-12-29T09:27:13;2.50;99.90
35894;DHT22;21994;48.204;16.516;2022-12-29T09:29:38;2.50;99.90
35894;DHT22;21994;48.204;16.516;2022-12-29T09:32:04;2.50;99.90
35894;DHT22;21994;48.204;16.516;2022-12-29T09:34:30;2.50;99.90
35894;DHT22;21994;48.204;16.516;2022-12-29T09:36:57;2.50;99.90
35894;DHT22;21994;48.204;16.516;2022-12-29T09:39:23;2.50;99.90
35894;DHT22;21994;48.204;16.516;2022-12-29T09:41:50;2.50;99.90
35894;DHT22;21994;48.204;16.516;2022-12-29T09:46:52;2.50;99.90
35894;DHT22;21994;48.204;16.516;2022-12-29T09:51:57;2.60;99.90
35894;DHT22;21994;48.204;16.516;2022-12-29T09:56:58;2.70;99.90
35894;DHT22;21994;48.204;16.516;2022-12-29T09:59:26;2.60;99.90
35894;DHT22;21994;48.204;16.516;2022-12-29T10:02:11;2.70;99.90
35894;DHT22;21994;48.204;16.516;2022-12-29T10:04:51;2.70;99.90
35894;DHT22;21994;48.204;16.516;2022-12-29T10:07:22;2.70;99.90
35894;DHT22;21994;48.204;16.516;2022-12-29T10:15:24;2.80;99.90
35894;DHT22;21994;48.204;16.516;2022-12-29T10:21:05;2.90;99.90
35894;DHT22;21994;48.204;16.516;2022-12-29T10:23:34;3.00;99.90
35894;DHT22;21994;48.204;16.516;2022-12-29T10:26:04;2.90;99.90
35894;DHT22;21994;48.204;16.516;2022-12-29T10:28:43;3.00;99.90
35894;DHT22;21994;48.204;16.516;2022-12-29T10:31:13;2.90;99.90
35894;DHT22;21994;48.204;16.516;2022-12-29T10:33:45;3.00;99.90
35894;DHT22;21994;48.204;16.516;2022-12-29T10:36:13;3.10;99.90
35894;DHT22;21994;48.204;16.516;2022-12-29T10:38:54;3.10;99.90
35894;DHT22;21994;48.204;16.516;2022-12-29T10:41:44;3.10;99.90
35894;DHT22;21994;48.204;16.516;2022-12-29T10:44:14;3.20;99.90
35894;DHT22;21994;48.204;16.516;2022-12-29T10:46:41;3.20;99.90
35894;DHT22;21994;48.204;16.516;2022-12-29T10:49:13;3.20;99.90
35894;DHT22;21994;48.204;16.516;2022-12-29T10:51:42;3.30;99.90
35894;DHT22;21994;48.204;16.516;2022-12-29T10:57:02;3.30;99.90
35894;DHT22;21994;48.204;16.516;2022-12-29T10:59:31;3.30;99.90
35894;DHT22;21994;48.204;16.516;2022-12-29T11:07:09;3.30;99.90
35894;DHT22;21994;48.204;16.516;2022-12-29T11:09:36;3.30;99.90
35894;DHT22;21994;48.204;16.516;2022-12-29T11:12:21;3.30;99.90
35894;DHT22;21994;48.204;16.516;2022-12-29T11:17:26;3.10;99.90
35894;DHT22;21994;48.204;16.516;2022-12-29T11:19:51;3.00;99.90
35894;DHT22;21994;48.204;16.516;2022-12-29T11:22:21;3.00;99.90
35894;DHT22;21994;48.204;16.516;2022-12-29T11:24:51;3.00;99.90
35894;DHT22;21994;48.204;16.516;2022-12-29T11:27:18;3.00;99.90
35894;DHT22;21994;48.204;16.516;2022-12-29T11:29:51;3.00;99.90
35894;DHT22;21994;48.204;16.516;2022-12-29T11:32:19;3.10;99.90
35894;DHT22;21994;48.204;16.516;2022-12-29T11:34:47;3.10;99.90
35894;DHT22;21994;48.204;16.516;2022-12-29T11:37:17;3.20;99.90
35894;DHT22;21994;48.204;16.516;2022-12-29T11:45:19;3.40;99.90
35894;DHT22;21994;48.204;16.516;2022-12-29T11:47:52;3.50;99.90
35894;DHT22;21994;48.204;16.516;2022-12-29T11:50:21;3.60;99.90
35894;DHT22;21994;48.204;16.516;2022-12-29T11:52:48;3.70;99.90
35894;DHT22;21994;48.204;16.516;2022-12-29T11:55:22;3.80;99.90
35894;DHT22;21994;48.204;16.516;2022-12-29T11:57:51;4.00;99.90
35894;DHT22;21994;48.204;16.516;2022-12-29T12:00:19;4.00;99.90
35894;DHT22;21994;48.204;16.516;2022-12-29T12:05:41;4.20;99.90
35894;DHT22;21994;48.204;16.516;2022-12-29T12:08:11;4.30;99.90
35894;DHT22;21994;48.204;16.516;2022-12-29T12:10:44;4.40;99.90
35894;DHT22;21994;48.204;16.516;2022-12-29T12:16:17;4.60;99.90
35894;DHT22;21994;48.204;16.516;2022-12-29T12:18:55;4.60;99.90
35894;DHT22;21994;48.204;16.516;2022-12-29T12:21:38;4.60;99.90
35894;DHT22;21994;48.204;16.516;2022-12-29T12:24:20;4.70;99.90
35894;DHT22;21994;48.204;16.516;2022-12-29T12:29:25;4.80;99.90
35894;DHT22;21994;48.204;16.516;2022-12-29T12:32:00;4.80;99.90
35894;DHT22;21994;48.204;16.516;2022-12-29T12:34:37;4.70;99.90
35894;DHT22;21994;48.204;16.516;2022-12-29T12:42:44;4.60;99.90
35894;DHT22;21994;48.204;16.516;2022-12-29T12:48:09;4.60;99.90
35894;DHT22;21994;48.204;16.516;2022-12-29T13:01:38;4.70;99.90
35894;DHT22;21994;48.204;16.516;2022-12-29T13:04:28;4.80;99.90
35894;DHT22;21994;48.204;16.516;2022-12-29T13:15:53;5.00;99.90
35894;DHT22;21994;48.204;16.516;2022-12-29T13:20:54;5.20;99.90
35894;DHT22;21994;48.204;16.516;2022-12-29T13:23:44;5.40;99.90
35894;DHT22;21994;48.204;16.516;2022-12-29T13:29:34;5.50;99.90
35894;DHT22;21994;48.204;16.516;2022-12-29T13:36:13;5.50;99.90
35894;DHT22;21994;48.204;16.516;2022-12-29T13:40:53;5.20;99.90
35894;DHT22;21994;48.204;16.516;2022-12-29T13:43:20;5.10;99.90
35894;DHT22;21994;48.204;16.516;2022-12-29T13:45:50;5.20;99.90
35894;DHT22;21994;48.204;16.516;2022-12-29T13:48:29;5.30;99.90
35894;DHT22;21994;48.204;16.516;2022-12-29T13:51:01;5.40;99.90
35894;DHT22;21994;48.204;16.516;2022-12-29T13:56:06;5.60;99.90
35894;DHT22;21994;48.204;16.516;2022-12-29T13:58:50;5.60;99.90
35894;DHT22;21994;48.204;16.516;2022-12-29T14:04:13;5.50;99.90
35894;DHT22;21994;48.204;16.516;2022-12-29T14:06:40;5.40;99.90
35894;DHT22;21994;48.204;16.516;2022-12-29T14:12:25;5.20;99.90
35894;DHT22;21994;48.204;16.516;2022-12-29T14:15:02;5.10;99.90
35894;DHT22;21994;48.204;16.516;2022-12-29T14:17:29;5.00;99.90
35894;DHT22;21994;48.204;16.516;2022-12-29T14:19:54;4.90;99.90
35894;DHT22;21994;48.204;16.516;2022-12-29T14:22:24;4.80;99.90
35894;DHT22;21994;48.204;16.516;2022-12-29T14:24:51;4.80;99.90
35894;DHT22;21994;48.204;16.516;2022-12-29T14:29:44;4.60;99.90
35894;DHT22;21994;48.204;16.516;2022-12-29T14:34:45;4.20;99.90
35894;DHT22;21994;48.204;16.516;2022-12-29T14:40:25;4.00;99.90
35894;DHT22;21994;48.204;16.516;2022-12-29T14:42:52;3.80;99.90
35894;DHT22;21994;48.204;16.516;2022-12-29T14:47:46;3.50;99.90
35894;DHT22;21994;48.204;16.516;2022-12-29T14:52:48;3.40;99.90
35894;DHT22;21994;48.204;16.516;2022-12-29T14:55:30;3.20;99.90
35894;DHT22;21994;48.204;16.516;2022-12-29T14:57:58;3.20;99.90
35894;DHT22;21994;48.204;16.516;2022-12-29T15:00:35;3.20;99.90
35894;DHT22;21994;48.204;16.516;2022-12-29T15:05:29;3.00;99.90
35894;DHT22;21994;48.204;16.516;2022-12-29T15:07:57;2.90;99.90
35894;DHT22;21994;48.204;16.516;2022-12-29T15:10:24;2.80;99.90
35894;DHT22;21994;48.204;16.516;2022-12-29T15:12:53;2.60;99.90
35894;DHT22;21994;48.204;16.516;2022-12-29T15:15:26;2.50;99.90
35894;DHT22;21994;48.204;16.516;2022-12-29T15:17:53;2.40;99.90
35894;DHT22;21994;48.204;16.516;2022-12-29T15:22:48;2.20;99.90
35894;DHT22;21994;48.204;16.516;2022-12-29T15:25:19;2.00;99.90
35894;DHT22;21994;48.204;16.516;2022-12-29T15:27:49;1.90;99.90
35894;DHT22;21994;48.204;16.516;2022-12-29T15:30:26;1.80;99.90
35894;DHT22;21994;48.204;16.516;2022-12-29T15:32:52;1.70;99.90
35894;DHT22;21994;48.204;16.516;2022-12-29T15:37:52;1.60;99.90
35894;DHT22;21994;48.204;16.516;2022-12-29T15:42:54;1.40;99.90
35894;DHT22;21994;48.204;16.516;2022-12-29T15:45:27;1.30;99.90
35894;DHT22;21994;48.204;16.516;2022-12-29T15:47:57;1.20;99.90
35894;DHT22;21994;48.204;16.516;2022-12-29T15:50:28;1.20;99.90
35894;DHT22;21994;48.204;16.516;2022-12-29T15:52:55;1.10;99.90
35894;DHT22;21994;48.204;16.516;2022-12-29T15:55:26;0.90;99.90
35894;DHT22;21994;48.204;16.516;2022-12-29T15:57:56;0.80;99.90
35894;DHT22;21994;48.204;16.516;2022-12-29T16:00:24;0.80;99.90
35894;DHT22;21994;48.204;16.516;2022-12-29T16:02:55;0.80;99.90
35894;DHT22;21994;48.204;16.516;2022-12-29T16:05:23;0.70;99.90
35894;DHT22;21994;48.204;16.516;2022-12-29T16:07:57;0.90;99.90
35894;DHT22;21994;48.204;16.516;2022-12-29T16:13:01;1.00;99.90
35894;DHT22;21994;48.204;16.516;2022-12-29T16:15:28;1.10;99.90
35894;DHT22;21994;48.204;16.516;2022-12-29T16:17:54;1.10;99.90
35894;DHT22;21994;48.204;16.516;2022-12-29T16:20:21;1.10;99.90
35894;DHT22;21994;48.204;16.516;2022-12-29T16:22:50;1.20;99.90
35894;DHT22;21994;48.204;16.516;2022-12-29T16:27:48;1.20;99.90
35894;DHT22;21994;48.204;16.516;2022-12-29T16:32:51;1.40;99.90
35894;DHT22;21994;48.204;16.516;2022-12-29T16:38:12;1.50;99.90
35894;DHT22;21994;48.204;16.516;2022-12-29T16:40:49;1.50;99.90
35894;DHT22;21994;48.204;16.516;2022-12-29T16:50:42;1.50;99.90
35894;DHT22;21994;48.204;16.516;2022-12-29T16:55:54;1.50;99.90
35894;DHT22;21994;48.204;16.516;2022-12-29T16:58:29;1.60;99.90
35894;DHT22;21994;48.204;16.516;2022-12-29T17:01:00;1.60;99.90
35894;DHT22;21994;48.204;16.516;2022-12-29T17:03:37;1.60;99.90
35894;DHT22;21994;48.204;16.516;2022-12-29T17:06:04;1.60;99.90
35894;DHT22;21994;48.204;16.516;2022-12-29T17:08:38;1.50;99.90
35894;DHT22;21994;48.204;16.516;2022-12-29T17:11:08;1.50;99.90
35894;DHT22;21994;48.204;16.516;2022-12-29T17:17:00;1.50;99.90
35894;DHT22;21994;48.204;16.516;2022-12-29T17:19:30;1.30;99.90
35894;DHT22;21994;48.204;16.516;2022-12-29T17:21:57;1.30;99.90
35894;DHT22;21994;48.204;16.516;2022-12-29T17:24:23;1.30;99.90
35894;DHT22;21994;48.204;16.516;2022-12-29T17:26:51;1.30;99.90
35894;DHT22;21994;48.204;16.516;2022-12-29T17:29:31;1.30;99.90
35894;DHT22;21994;48.204;16.516;2022-12-29T17:32:00;1.30;99.90
35894;DHT22;21994;48.204;16.516;2022-12-29T17:34:26;1.30;99.90
35894;DHT22;21994;48.204;16.516;2022-12-29T17:36:52;1.30;99.90
35894;DHT22;21994;48.204;16.516;2022-12-29T17:39:17;1.30;99.90
35894;DHT22;21994;48.204;16.516;2022-12-29T17:41:43;1.30;99.90
35894;DHT22;21994;48.204;16.516;2022-12-29T17:44:12;1.30;99.90
35894;DHT22;21994;48.204;16.516;2022-12-29T17:46:43;1.20;99.90
35894;DHT22;21994;48.204;16.516;2022-12-29T17:49:11;1.10;99.90
35894;DHT22;21994;48.204;16.516;2022-12-29T17:51:44;1.00;99.90
35894;DHT22;21994;48.204;16.516;2022-12-29T17:54:20;1.00;99.90
35894;DHT22;21994;48.204;16.516;2022-12-29T17:56:47;1.00;99.90
35894;DHT22;21994;48.204;16.516;2022-12-29T17:59:13;1.10;99.90
35894;DHT22;21994;48.204;16.516;2022-12-29T18:01:40;1.00;99.90
35894;DHT22;21994;48.204;16.516;2022-12-29T18:04:10;0.90;99.90
35894;DHT22;21994;48.204;16.516;2022-12-29T18:06:36;0.80;99.90
35894;DHT22;21994;48.204;16.516;2022-12-29T18:09:02;0.70;99.90
35894;DHT22;21994;48.204;16.516;2022-12-29T18:11:29;0.80;99.90
35894;DHT22;21994;48.204;16.516;2022-12-29T18:13:54;0.90;99.90
35894;DHT22;21994;48.204;16.516;2022-12-29T18:16:20;0.80;99.90
35894;DHT22;21994;48.204;16.516;2022-12-29T18:18:46;0.70;99.90
35894;DHT22;21994;48.204;16.516;2022-12-29T18:21:14;0.60;99.90
35894;DHT22;21994;48.204;16.516;2022-12-29T18:23:41;0.70;99.90
35894;DHT22;21994;48.204;16.516;2022-12-29T18:26:11;0.70;99.90
35894;DHT22;21994;48.204;16.516;2022-12-29T18:28:42;0.70;99.90